Time;durP1;ratioP1;P1;durP2;ratioP2;P2;SDS_P1;SDS_P2;PMS_P1;PMS_P2;Temp;Humidity;BMP_temperature;BMP_pressure;BME280_temperature;BME280_humidity;BME280_pressure;Samples;Min_cycle;Max_cycle;Signal;HPM_P1;HPM_P2
2021/07/23 00:00:43;;;;;;;5.77;3.93;;;16.10;99.90;;;;;;5063030;28;20304;-72
2021/07/23 00:03:11;;;;;;;7.22;3.42;;;16.00;99.90;;;;;;5068654;28;20202;-72
2021/07/23 00:05:38;;;;;;;3.95;3.58;;;16.00;99.90;;;;;;5071084;28;20598;-72
2021/07/23 00:08:06;;;;;;;5.60;3.37;;;16.00;99.90;;;;;;5063772;28;20199;-72
2021/07/23 00:10:33;;;;;;;5.13;3.50;;;16.00;99.90;;;;;;5069443;28;20264;-72
2021/07/23 00:13:00;;;;;;;5.77;4.00;;;15.80;99.90;;;;;;5076340;28;20252;-72
2021/07/23 00:15:28;;;;;;;5.87;3.90;;;15.70;99.90;;;;;;5070704;28;20482;-72
2021/07/23 00:17:55;;;;;;;5.65;4.40;;;15.60;99.90;;;;;;5075996;28;20254;-72
2021/07/23 00:20:23;;;;;;;6.50;4.22;;;15.50;99.90;;;;;;5070958;28;20222;-72
2021/07/23 00:22:50;;;;;;;6.10;4.20;;;15.40;99.90;;;;;;5071157;28;20206;-72
2021/07/23 00:25:17;;;;;;;6.73;4.83;;;15.10;99.90;;;;;;5070962;28;20194;-72
2021/07/23 00:27:44;;;;;;;5.37;4.67;;;15.10;99.90;;;;;;5067982;28;20257;-72
2021/07/23 00:30:12;;;;;;;5.43;4.63;;;14.90;99.90;;;;;;5068303;28;20627;-72
2021/07/23 00:32:40;;;;;;;5.90;4.67;;;15.00;99.90;;;;;;5079704;28;20206;-72
2021/07/23 00:35:08;;;;;;;8.10;5.13;;;15.10;99.90;;;;;;5071786;28;20198;-72
2021/07/23 00:37:36;;;;;;;9.13;5.07;;;15.10;99.90;;;;;;5068854;28;20199;-72
2021/07/23 00:40:04;;;;;;;5.83;4.93;;;15.00;99.90;;;;;;5069335;28;20197;-72
2021/07/23 00:42:36;;;;;;;9.90;4.80;;;14.90;99.90;;;;;;5074295;28;20627;-72
2021/07/23 00:45:03;;;;;;;8.50;4.93;;;14.60;99.90;;;;;;5069291;28;20198;-72
2021/07/23 00:47:30;;;;;;;7.13;4.83;;;14.60;99.90;;;;;;5068927;28;20228;-72
2021/07/23 00:49:58;;;;;;;8.00;4.93;;;14.60;99.90;;;;;;5070924;28;20403;-72
2021/07/23 00:52:25;;;;;;;8.20;5.30;;;14.50;99.90;;;;;;5071415;28;20279;-72
2021/07/23 00:54:53;;;;;;;8.63;5.90;;;14.40;99.90;;;;;;5082296;28;20594;-72
2021/07/23 00:57:20;;;;;;;5.73;5.13;;;14.50;99.90;;;;;;5070811;28;20207;-72
2021/07/23 00:59:48;;;;;;;8.97;5.80;;;14.50;99.90;;;;;;5082194;28;20503;-72
2021/07/23 01:02:15;;;;;;;9.67;6.30;;;14.50;99.90;;;;;;5069557;28;20203;-72
2021/07/23 01:04:42;;;;;;;10.50;6.10;;;14.40;99.90;;;;;;5072278;28;20210;-72
2021/07/23 01:07:09;;;;;;;7.60;5.13;;;14.30;99.90;;;;;;5079431;28;20206;-72
2021/07/23 01:09:36;;;;;;;6.37;5.30;;;14.40;99.90;;;;;;5070439;28;20198;-72
2021/07/23 01:12:05;;;;;;;10.03;5.67;;;14.40;99.90;;;;;;5077367;28;20271;-72
2021/07/23 01:14:33;;;;;;;8.27;5.67;;;14.40;99.90;;;;;;5090656;28;20247;-72
2021/07/23 01:17:02;;;;;;;7.60;5.37;;;14.30;99.90;;;;;;5072104;28;20256;-72
2021/07/23 01:19:35;;;;;;;9.40;5.50;;;14.40;99.90;;;;;;5070599;28;20198;-72
2021/07/23 01:22:07;;;;;;;7.93;5.60;;;14.30;99.90;;;;;;5087120;28;20243;-72
2021/07/23 01:24:36;;;;;;;8.07;5.60;;;14.30;99.90;;;;;;5078064;28;20229;-72
2021/07/23 01:27:04;;;;;;;7.63;6.00;;;14.30;99.90;;;;;;5069514;28;20242;-72
2021/07/23 01:29:31;;;;;;;9.13;5.37;;;14.30;99.90;;;;;;5070096;28;20244;-72
2021/07/23 01:31:58;;;;;;;6.60;5.40;;;14.40;99.90;;;;;;5084846;28;20663;-72
2021/07/23 01:34:25;;;;;;;8.07;5.83;;;14.20;99.90;;;;;;5085200;28;20206;-72
2021/07/23 01:36:52;;;;;;;8.90;6.00;;;14.20;99.90;;;;;;5072996;28;20252;-72
2021/07/23 01:39:19;;;;;;;8.33;5.77;;;14.30;99.90;;;;;;5082149;28;20347;-72
2021/07/23 01:41:48;;;;;;;10.40;5.70;;;14.20;99.90;;;;;;5071155;28;20221;-72
2021/07/23 01:44:15;;;;;;;8.43;5.70;;;14.40;99.90;;;;;;5069882;28;20199;-71
2021/07/23 01:46:42;;;;;;;9.23;5.67;;;14.40;99.90;;;;;;5067948;28;20198;-71
2021/07/23 01:49:09;;;;;;;9.40;5.60;;;14.30;99.90;;;;;;5070185;28;20249;-71
2021/07/23 01:51:36;;;;;;;8.53;6.03;;;14.30;99.90;;;;;;5070265;28;20273;-71
2021/07/23 01:54:03;;;;;;;8.63;5.90;;;14.40;99.90;;;;;;5068026;28;20280;-71
2021/07/23 01:56:30;;;;;;;12.20;7.17;;;14.40;99.90;;;;;;5069504;28;20206;-71
2021/07/23 01:58:59;;;;;;;9.37;6.03;;;14.30;99.90;;;;;;5063873;28;20202;-71
2021/07/23 02:01:25;;;;;;;9.40;6.00;;;14.20;99.90;;;;;;5069708;28;20248;-71
2021/07/23 02:03:52;;;;;;;8.43;5.90;;;14.30;99.90;;;;;;5071532;28;20198;-71
2021/07/23 02:06:19;;;;;;;12.63;6.80;;;14.20;99.90;;;;;;5069212;28;20202;-71
2021/07/23 02:08:47;;;;;;;8.33;5.87;;;14.30;99.90;;;;;;5071956;28;20255;-71
2021/07/23 02:11:14;;;;;;;8.60;5.80;;;14.20;99.90;;;;;;5072643;28;20726;-71
2021/07/23 02:13:41;;;;;;;9.17;6.10;;;14.10;99.90;;;;;;5073206;28;20540;-71
2021/07/23 02:16:09;;;;;;;8.10;6.23;;;13.90;99.90;;;;;;5072910;28;20199;-71
2021/07/23 02:18:36;;;;;;;7.47;6.03;;;13.90;99.90;;;;;;5073502;28;20225;-71
2021/07/23 02:21:07;;;;;;;8.47;5.83;;;13.90;99.90;;;;;;5072255;28;20252;-71
2021/07/23 02:23:34;;;;;;;10.03;6.27;;;13.70;99.90;;;;;;5075205;28;20205;-71
2021/07/23 02:26:01;;;;;;;10.77;5.97;;;13.70;99.90;;;;;;5078070;28;20248;-71
2021/07/23 02:28:28;;;;;;;7.67;5.90;;;13.60;99.90;;;;;;5071590;28;20199;-71
2021/07/23 02:30:55;;;;;;;9.00;5.80;;;13.60;99.90;;;;;;5071444;28;20588;-71
2021/07/23 02:33:23;;;;;;;7.73;6.07;;;13.80;99.90;;;;;;5073447;28;20202;-71
2021/07/23 02:35:50;;;;;;;11.60;6.40;;;13.70;99.90;;;;;;5081679;28;20206;-71
2021/07/23 02:38:17;;;;;;;7.87;5.90;;;13.60;99.90;;;;;;5072087;28;20199;-71
2021/07/23 02:40:44;;;;;;;9.23;5.93;;;13.60;99.90;;;;;;5083612;28;20644;-71
2021/07/23 02:43:11;;;;;;;6.77;5.57;;;13.60;99.90;;;;;;5072187;28;20636;-71
2021/07/23 02:45:38;;;;;;;10.57;6.07;;;13.60;99.90;;;;;;5071859;28;20725;-71
2021/07/23 02:48:05;;;;;;;7.90;6.10;;;13.60;99.90;;;;;;5072235;28;20206;-71
2021/07/23 02:50:34;;;;;;;9.57;6.17;;;13.80;99.90;;;;;;5072380;28;20226;-71
2021/07/23 02:53:01;;;;;;;7.80;6.13;;;13.90;99.90;;;;;;5072126;28;20232;-71
2021/07/23 02:55:28;;;;;;;9.17;6.53;;;13.90;99.90;;;;;;5072438;28;20238;-71
2021/07/23 02:57:55;;;;;;;11.90;6.60;;;13.80;99.90;;;;;;5072594;28;20648;-71
2021/07/23 03:00:22;;;;;;;8.43;6.10;;;13.70;99.90;;;;;;5083969;28;20198;-71
2021/07/23 03:02:49;;;;;;;8.20;6.30;;;13.70;99.90;;;;;;5072818;28;20206;-71
2021/07/23 03:05:16;;;;;;;9.43;6.07;;;13.80;99.90;;;;;;5072196;28;20243;-71
2021/07/23 03:07:44;;;;;;;8.03;5.30;;;14.00;99.90;;;;;;5071687;28;20206;-71
2021/07/23 03:10:12;;;;;;;8.80;5.90;;;14.00;99.90;;;;;;5071401;28;20211;-71
2021/07/23 03:12:39;;;;;;;9.03;6.03;;;13.90;99.90;;;;;;5071330;28;20572;-71
2021/07/23 03:15:07;;;;;;;9.33;6.00;;;13.90;99.90;;;;;;5077020;28;20645;-71
2021/07/23 03:17:34;;;;;;;8.47;6.10;;;13.90;99.90;;;;;;5072342;28;20203;-71
2021/07/23 03:20:02;;;;;;;8.20;5.47;;;13.90;99.90;;;;;;5077483;28;20445;-72
2021/07/23 03:22:29;;;;;;;10.53;6.37;;;14.00;99.90;;;;;;5071947;28;20194;-70
2021/07/23 03:25:00;;;;;;;9.57;5.90;;;14.10;99.90;;;;;;5071456;28;20252;-69
2021/07/23 03:27:27;;;;;;;9.80;6.30;;;13.80;99.90;;;;;;5071169;28;20202;-72
2021/07/23 03:29:54;;;;;;;9.27;6.00;;;13.80;99.90;;;;;;5071385;28;20230;-72
2021/07/23 03:32:21;;;;;;;7.63;5.53;;;13.60;99.90;;;;;;5071632;28;20307;-70
2021/07/23 03:34:48;;;;;;;11.50;6.23;;;13.80;99.90;;;;;;5078183;28;20194;-69
2021/07/23 03:37:15;;;;;;;8.33;5.87;;;13.70;99.90;;;;;;5071541;28;20202;-71
2021/07/23 03:39:42;;;;;;;9.80;6.40;;;13.50;99.90;;;;;;5078555;28;20199;-71
2021/07/23 03:42:11;;;;;;;10.07;6.23;;;13.50;99.90;;;;;;5070997;28;20267;-71
2021/07/23 03:44:38;;;;;;;12.27;6.40;;;13.40;99.90;;;;;;5078787;28;20236;-71
2021/07/23 03:47:04;;;;;;;8.57;6.10;;;13.30;99.90;;;;;;5071017;28;20206;-71
2021/07/23 03:49:31;;;;;;;8.93;6.23;;;13.30;99.90;;;;;;5078788;28;20201;-71
2021/07/23 03:51:59;;;;;;;9.03;6.17;;;13.60;99.90;;;;;;5071517;28;20280;-70
2021/07/23 03:54:26;;;;;;;10.77;5.90;;;13.50;99.90;;;;;;5071029;28;20593;-72
2021/07/23 03:56:53;;;;;;;10.07;6.40;;;13.30;99.90;;;;;;5071036;28;20644;-72
2021/07/23 03:59:21;;;;;;;9.90;6.10;;;13.30;99.90;;;;;;5076273;28;20219;-73
2021/07/23 04:01:48;;;;;;;7.57;5.80;;;13.50;99.90;;;;;;5063788;28;20207;-72
2021/07/23 04:04:15;;;;;;;8.17;5.73;;;13.60;99.90;;;;;;5070644;28;20203;-72
2021/07/23 04:06:42;;;;;;;11.67;6.07;;;13.60;99.90;;;;;;5064142;28;20210;-73
2021/07/23 04:09:09;;;;;;;12.77;6.47;;;13.90;99.90;;;;;;5078718;28;20197;-72
2021/07/23 04:11:45;;;;;;;8.10;5.83;;;13.90;99.90;;;;;;5071472;28;20230;-71
2021/07/23 04:14:12;;;;;;;8.13;5.57;;;13.80;99.90;;;;;;5071053;28;20536;-71
2021/07/23 04:16:40;;;;;;;9.20;5.80;;;13.70;99.90;;;;;;5071347;28;20641;-70
2021/07/23 04:19:07;;;;;;;9.40;5.70;;;14.10;99.90;;;;;;5070188;28;20247;-70
2021/07/23 04:21:34;;;;;;;8.50;5.87;;;14.30;99.90;;;;;;5070931;28;20202;-72
2021/07/23 04:24:01;;;;;;;10.57;6.00;;;14.30;99.90;;;;;;5070990;28;20205;-72
2021/07/23 04:26:28;;;;;;;8.80;5.57;;;14.20;99.90;;;;;;5070500;28;20202;-71
2021/07/23 04:28:55;;;;;;;7.20;5.40;;;14.50;99.90;;;;;;5072589;28;20710;-70
2021/07/23 04:31:22;;;;;;;7.03;5.23;;;14.60;99.90;;;;;;5070879;28;20664;-70
2021/07/23 04:33:50;;;;;;;11.33;6.13;;;14.60;99.90;;;;;;5071914;28;20198;-71
2021/07/23 04:36:17;;;;;;;7.83;5.10;;;14.40;99.90;;;;;;5070456;28;20244;-72
2021/07/23 04:38:44;;;;;;;8.37;4.80;;;14.30;99.90;;;;;;5071071;28;20202;-72
2021/07/23 04:41:12;;;;;;;8.57;5.53;;;14.40;99.90;;;;;;5073904;28;20210;-72
2021/07/23 04:43:39;;;;;;;7.87;5.30;;;14.30;99.90;;;;;;5070887;28;20210;-73
2021/07/23 04:46:06;;;;;;;8.83;5.80;;;14.20;99.90;;;;;;5070177;28;20210;-72
2021/07/23 04:48:33;;;;;;;7.70;5.07;;;14.10;99.90;;;;;;5070621;28;20640;-72
2021/07/23 04:51:03;;;;;;;9.07;5.13;;;14.40;99.90;;;;;;5070381;28;20203;-72
2021/07/23 04:53:30;;;;;;;9.20;5.13;;;14.50;99.90;;;;;;5070352;28;20275;-70
2021/07/23 04:56:00;;;;;;;6.77;4.90;;;14.60;99.90;;;;;;5073736;28;20202;-71
2021/07/23 04:58:27;;;;;;;9.23;5.50;;;14.60;99.90;;;;;;5069816;28;20214;-70
2021/07/23 05:00:54;;;;;;;9.10;5.20;;;14.60;99.90;;;;;;5070581;28;20206;-71
2021/07/23 05:03:22;;;;;;;6.43;4.73;;;14.60;99.90;;;;;;5070241;28;20230;-70
2021/07/23 05:05:49;;;;;;;9.63;5.27;;;14.60;99.90;;;;;;5070465;28;20729;-71
2021/07/23 05:08:17;;;;;;;7.73;5.10;;;14.60;99.90;;;;;;5071628;28;20245;-70
2021/07/23 05:10:45;;;;;;;10.03;5.77;;;14.60;99.90;;;;;;5073864;28;20202;-70
2021/07/23 05:13:12;;;;;;;9.57;5.07;;;14.70;99.90;;;;;;5073598;28;20255;-70
2021/07/23 05:15:40;;;;;;;9.87;5.37;;;14.70;99.90;;;;;;5074771;28;20198;-70
2021/07/23 05:18:08;;;;;;;7.13;5.07;;;14.80;99.90;;;;;;5074337;28;20199;-70
2021/07/23 05:20:35;;;;;;;8.73;5.57;;;14.90;99.90;;;;;;5078184;28;20207;-71
2021/07/23 05:23:03;;;;;;;7.57;5.33;;;14.80;99.90;;;;;;5074054;28;20238;-71
2021/07/23 05:25:32;;;;;;;10.13;5.43;;;14.80;99.90;;;;;;5073503;28;20198;-71
2021/07/23 05:28:00;;;;;;;9.27;5.70;;;15.00;99.90;;;;;;5074140;28;20198;-70
2021/07/23 05:30:27;;;;;;;10.20;5.50;;;15.00;99.90;;;;;;5073543;28;20206;-70
2021/07/23 05:32:54;;;;;;;8.60;5.07;;;15.20;99.90;;;;;;5073873;28;20634;-71
2021/07/23 05:35:21;;;;;;;8.87;5.20;;;15.90;99.90;;;;;;5079446;28;20255;-71
2021/07/23 05:37:48;;;;;;;9.47;4.83;;;15.80;99.90;;;;;;5075758;28;20248;-70
2021/07/23 05:40:16;;;;;;;6.87;5.03;;;15.40;99.90;;;;;;5078681;28;20643;-70
2021/07/23 05:42:44;;;;;;;7.83;5.20;;;15.40;99.90;;;;;;5073644;28;20210;-71
2021/07/23 05:45:12;;;;;;;10.07;5.40;;;15.40;99.90;;;;;;5073262;28;20194;-71
2021/07/23 05:47:39;;;;;;;9.53;5.20;;;16.20;99.90;;;;;;5073261;28;20279;-71
2021/07/23 05:50:07;;;;;;;7.97;5.13;;;17.50;99.90;;;;;;5086151;28;20202;-71
2021/07/23 05:52:34;;;;;;;8.70;5.10;;;16.70;99.90;;;;;;5073053;28;20275;-71
2021/07/23 05:55:01;;;;;;;7.67;5.10;;;16.30;99.90;;;;;;5073108;28;20199;-71
2021/07/23 05:57:28;;;;;;;9.73;5.23;;;16.40;99.90;;;;;;5072968;28;20259;-71
2021/07/23 05:59:56;;;;;;;8.05;4.63;;;16.10;99.90;;;;;;5073789;28;20213;-71
2021/07/23 06:02:23;;;;;;;9.85;4.97;;;16.00;99.90;;;;;;5072838;28;20247;-71
2021/07/23 06:04:50;;;;;;;9.43;4.88;;;16.20;99.90;;;;;;5073952;28;20244;-71
2021/07/23 06:07:18;;;;;;;6.93;4.45;;;16.10;99.90;;;;;;5074898;28;20211;-71
2021/07/23 06:09:45;;;;;;;8.70;4.43;;;16.20;99.90;;;;;;5080147;28;20217;-71
2021/07/23 06:12:12;;;;;;;8.20;5.03;;;15.90;99.90;;;;;;5073600;28;20283;-71
2021/07/23 06:14:39;;;;;;;8.38;5.03;;;16.00;99.90;;;;;;5064547;28;20252;-71
2021/07/23 06:17:08;;;;;;;9.10;4.82;;;16.10;99.90;;;;;;5072864;28;20248;-71
2021/07/23 06:19:36;;;;;;;5.40;4.55;;;16.10;99.90;;;;;;5071793;28;20206;-73
2021/07/23 06:22:05;;;;;;;9.25;5.20;;;16.30;99.90;;;;;;5073112;28;20207;-71
2021/07/23 06:24:32;;;;;;;11.70;5.50;;;16.20;99.90;;;;;;5072316;28;20206;-70
2021/07/23 06:26:59;;;;;;;8.85;5.18;;;16.30;99.90;;;;;;5072976;28;20198;-71
2021/07/23 06:29:26;;;;;;;7.40;4.50;;;16.60;99.90;;;;;;5073268;28;20206;-71
2021/07/23 06:31:57;;;;;;;7.35;5.13;;;16.60;99.90;;;;;;5072529;28;20304;-71
2021/07/23 06:34:25;;;;;;;6.78;4.38;;;16.70;99.90;;;;;;5072443;28;20202;-71
2021/07/23 06:36:52;;;;;;;8.27;4.80;;;16.60;99.90;;;;;;5084711;28;20198;-71
2021/07/23 06:39:19;;;;;;;10.47;4.40;;;16.60;99.90;;;;;;5073651;28;20206;-71
2021/07/23 06:41:46;;;;;;;7.78;4.80;;;16.60;99.90;;;;;;5072550;28;20214;-71
2021/07/23 06:44:13;;;;;;;5.85;4.22;;;16.80;99.90;;;;;;5072485;28;20676;-71
2021/07/23 06:46:40;;;;;;;8.00;4.78;;;17.10;99.90;;;;;;5071427;28;20229;-71
2021/07/23 06:49:07;;;;;;;7.80;4.35;;;17.20;99.90;;;;;;5072190;28;20202;-71
2021/07/23 06:51:36;;;;;;;5.85;4.40;;;17.20;99.90;;;;;;5071442;28;20611;-71
2021/07/23 06:54:02;;;;;;;6.95;4.75;;;17.30;99.90;;;;;;5074832;28;20222;-71
2021/07/23 06:56:29;;;;;;;8.10;4.70;;;17.20;99.90;;;;;;5072647;28;20625;-71
2021/07/23 06:58:56;;;;;;;6.32;4.50;;;17.20;99.90;;;;;;5072343;28;20206;-71
2021/07/23 07:01:23;;;;;;;5.25;3.85;;;17.20;99.90;;;;;;5072714;28;20252;-71
2021/07/23 07:03:50;;;;;;;6.70;3.67;;;17.10;99.90;;;;;;5072438;28;20260;-71
2021/07/23 07:06:17;;;;;;;9.27;4.20;;;17.00;99.90;;;;;;5059370;28;20199;-71
2021/07/23 07:08:45;;;;;;;7.25;4.35;;;17.30;99.90;;;;;;5071972;28;20259;-71
2021/07/23 07:11:12;;;;;;;6.40;4.47;;;17.40;99.90;;;;;;5071098;28;20206;-71
2021/07/23 07:13:39;;;;;;;5.47;4.15;;;17.40;99.90;;;;;;5071416;28;20229;-71
2021/07/23 07:16:06;;;;;;;9.98;4.60;;;17.30;99.90;;;;;;5072277;28;20198;-71
2021/07/23 07:18:33;;;;;;;7.25;4.10;;;17.10;99.90;;;;;;5071490;28;20198;-71
2021/07/23 07:21:00;;;;;;;7.75;3.70;;;17.10;99.90;;;;;;5072178;28;20233;-71
2021/07/23 07:23:27;;;;;;;6.53;3.78;;;17.30;99.90;;;;;;5071292;28;20554;-71
2021/07/23 07:25:55;;;;;;;5.07;3.50;;;17.90;99.90;;;;;;5071289;28;20252;-71
2021/07/23 07:28:22;;;;;;;4.35;3.35;;;17.80;99.90;;;;;;5071083;28;20217;-71
2021/07/23 07:30:50;;;;;;;8.85;3.50;;;17.80;99.90;;;;;;5070562;28;20206;-71
2021/07/23 07:33:18;;;;;;;5.95;3.35;;;17.40;99.90;;;;;;5071293;28;20221;-71
2021/07/23 07:35:45;;;;;;;6.85;3.30;;;17.50;99.90;;;;;;5071923;28;20553;-71
2021/07/23 07:38:12;;;;;;;6.40;3.35;;;17.50;99.90;;;;;;5071476;28;20285;-71
2021/07/23 07:40:40;;;;;;;6.82;3.35;;;17.90;99.90;;;;;;5070697;28;20644;-71
2021/07/23 07:43:08;;;;;;;5.38;3.08;;;18.00;99.90;;;;;;5071478;28;20267;-71
2021/07/23 07:45:37;;;;;;;6.30;3.28;;;17.90;99.90;;;;;;5070996;28;20256;-71
2021/07/23 07:48:04;;;;;;;7.45;3.60;;;17.90;99.90;;;;;;5071509;28;20202;-71
2021/07/23 07:50:31;;;;;;;5.35;3.15;;;17.80;99.90;;;;;;5071062;28;20210;-71
2021/07/23 07:52:58;;;;;;;5.57;3.42;;;17.80;99.90;;;;;;5071336;28;20275;-71
2021/07/23 07:55:26;;;;;;;7.10;3.65;;;18.10;99.90;;;;;;5070883;28;20260;-71
2021/07/23 07:57:53;;;;;;;5.70;3.55;;;18.00;99.90;;;;;;5068627;28;20258;-71
2021/07/23 08:00:22;;;;;;;5.70;3.28;;;17.80;99.90;;;;;;5062925;28;20644;-71
2021/07/23 08:02:49;;;;;;;5.03;3.20;;;18.10;99.90;;;;;;5058219;28;20248;-71
2021/07/23 08:05:16;;;;;;;4.82;3.03;;;18.20;99.90;;;;;;5071054;28;20267;-71
2021/07/23 08:07:43;;;;;;;6.18;3.05;;;18.40;99.90;;;;;;5071006;28;20210;-71
2021/07/23 08:10:14;;;;;;;7.00;3.65;;;18.50;99.90;;;;;;5064852;28;20202;-71
2021/07/23 08:12:41;;;;;;;5.13;3.08;;;18.20;99.90;;;;;;5054589;28;20568;-71
2021/07/23 08:15:09;;;;;;;5.22;3.45;;;18.60;99.90;;;;;;5066806;28;20414;-71
2021/07/23 08:17:37;;;;;;;5.18;3.75;;;18.50;99.90;;;;;;5064470;28;20206;-71
2021/07/23 08:20:05;;;;;;;3.95;3.13;;;18.60;99.90;;;;;;5056248;28;20237;-71
2021/07/23 08:22:33;;;;;;;4.50;3.47;;;18.70;99.90;;;;;;5064605;28;20209;-71
2021/07/23 08:25:00;;;;;;;6.25;3.65;;;18.80;99.90;;;;;;5064256;28;20257;-71
2021/07/23 08:27:28;;;;;;;5.22;3.55;;;18.90;99.90;;;;;;5061219;28;20265;-71
2021/07/23 08:29:55;;;;;;;5.80;2.92;;;19.10;99.90;;;;;;5064605;28;20226;-71
2021/07/23 08:32:22;;;;;;;4.97;3.10;;;18.50;99.90;;;;;;5056524;28;20335;-71
2021/07/23 08:34:56;;;;;;;7.18;3.63;;;18.50;99.90;;;;;;5062466;28;20203;-71
2021/07/23 08:37:23;;;;;;;6.60;3.30;;;18.90;99.90;;;;;;5054764;28;20207;-71
2021/07/23 08:39:50;;;;;;;6.20;3.58;;;19.20;99.90;;;;;;5056698;28;20248;-71
2021/07/23 08:42:25;;;;;;;5.25;3.40;;;19.30;99.90;;;;;;5064350;28;20538;-71
2021/07/23 08:44:52;;;;;;;4.78;3.40;;;19.30;99.90;;;;;;5062313;28;20199;-71
2021/07/23 08:47:19;;;;;;;4.90;3.53;;;19.10;99.90;;;;;;5065073;28;20206;-71
2021/07/23 08:49:46;;;;;;;5.22;3.20;;;19.10;99.90;;;;;;5064302;28;20209;-71
2021/07/23 08:52:14;;;;;;;5.53;3.88;;;19.30;99.90;;;;;;5062479;28;20206;-71
2021/07/23 08:54:42;;;;;;;7.18;3.50;;;19.60;99.90;;;;;;5063549;28;20203;-71
2021/07/23 08:57:10;;;;;;;6.90;3.95;;;19.80;99.90;;;;;;5070974;28;20247;-71
2021/07/23 08:59:37;;;;;;;8.80;3.72;;;19.80;99.90;;;;;;5065230;28;20202;-71
2021/07/23 09:02:05;;;;;;;6.78;3.45;;;20.10;99.90;;;;;;5063048;28;20206;-71
2021/07/23 09:04:34;;;;;;;6.32;4.35;;;20.20;99.90;;;;;;5072485;28;20206;-71
2021/07/23 09:07:31;;;;;;;8.13;3.40;;;20.30;99.90;;;;;;5065458;28;20214;-71
2021/07/23 09:10:05;;;;;;;6.18;3.63;;;20.70;99.90;;;;;;5066459;28;20257;-71
2021/07/23 09:12:46;;;;;;;6.10;4.18;;;21.30;99.90;;;;;;5077111;28;20276;-71
2021/07/23 09:15:21;;;;;;;7.05;3.60;;;20.90;99.90;;;;;;5062993;28;20206;-71
2021/07/23 09:17:48;;;;;;;6.80;4.05;;;21.60;99.90;;;;;;5065500;28;20194;-71
2021/07/23 09:20:15;;;;;;;7.47;4.07;;;20.90;99.90;;;;;;5064803;28;20219;-70
2021/07/23 09:22:48;;;;;;;6.43;3.80;;;21.00;99.90;;;;;;5061512;28;20198;-71
2021/07/23 09:25:15;;;;;;;6.25;4.22;;;20.70;99.90;;;;;;5063015;28;20198;-71
2021/07/23 09:27:43;;;;;;;7.55;4.45;;;20.50;99.90;;;;;;5068448;28;20661;-71
2021/07/23 09:30:12;;;;;;;5.20;4.07;;;20.90;99.90;;;;;;5063554;28;20555;-71
2021/07/23 09:32:40;;;;;;;5.85;4.15;;;21.40;99.90;;;;;;5070054;28;20225;-72
2021/07/23 09:35:12;;;;;;;7.68;4.35;;;22.10;99.90;;;;;;5077255;28;20202;-71
2021/07/23 09:37:58;;;;;;;5.38;4.13;;;22.20;99.90;;;;;;5063822;28;20194;-71
2021/07/23 09:40:26;;;;;;;7.60;4.38;;;22.70;99.90;;;;;;5059148;28;20202;-73
2021/07/23 09:42:57;;;;;;;8.02;4.78;;;22.20;99.90;;;;;;5072316;28;20233;-73
2021/07/23 09:45:28;;;;;;;5.57;3.88;;;22.10;99.90;;;;;;5068255;28;20601;-70
2021/07/23 09:48:08;;;;;;;5.32;3.80;;;22.10;99.90;;;;;;5072726;28;20271;-70
2021/07/23 09:50:39;;;;;;;5.97;3.90;;;22.60;99.90;;;;;;5068913;28;20206;-70
2021/07/23 09:53:09;;;;;;;6.18;4.38;;;22.40;99.90;;;;;;5072146;28;20907;-73
2021/07/23 09:55:36;;;;;;;4.85;3.92;;;22.60;99.90;;;;;;5072136;28;20203;-73
2021/07/23 09:58:07;;;;;;;7.43;4.22;;;23.00;99.90;;;;;;5071524;28;20729;-74
2021/07/23 10:00:43;;;;;;;5.20;3.55;;;23.50;99.90;;;;;;5072497;28;20206;-73
2021/07/23 10:03:13;;;;;;;4.50;3.15;;;23.60;99.90;;;;;;5072082;28;20286;-73
2021/07/23 10:05:48;;;;;;;4.80;3.28;;;23.60;99.90;;;;;;5069225;28;20208;-73
2021/07/23 10:08:23;;;;;;;5.05;3.70;;;23.50;99.90;;;;;;5076235;28;20271;-73
2021/07/23 10:10:52;;;;;;;5.57;3.38;;;22.80;99.90;;;;;;5070404;28;20217;-73
2021/07/23 10:13:22;;;;;;;5.10;3.20;;;23.20;99.90;;;;;;5064727;28;20226;-73
2021/07/23 10:15:49;;;;;;;3.35;2.88;;;23.10;99.90;;;;;;5075270;28;20198;-73
2021/07/23 10:18:17;;;;;;;3.90;3.10;;;23.90;99.90;;;;;;5075232;28;20199;-74
2021/07/23 10:20:45;;;;;;;4.90;2.97;;;23.30;99.90;;;;;;5071448;28;20202;-73
2021/07/23 10:23:15;;;;;;;3.95;2.78;;;23.90;99.90;;;;;;5060054;28;20725;-73
2021/07/23 10:25:44;;;;;;;3.42;2.88;;;24.40;99.90;;;;;;5065811;28;20260;-73
2021/07/23 10:28:11;;;;;;;7.47;3.40;;;24.20;99.90;;;;;;5063424;28;20241;-71
2021/07/23 10:30:39;;;;;;;3.22;2.60;;;23.60;99.90;;;;;;5063826;28;20202;-71
2021/07/23 10:33:06;;;;;;;3.15;2.58;;;23.20;99.90;;;;;;5066055;28;20221;-71
2021/07/23 10:35:35;;;;;;;3.83;2.83;;;22.80;99.90;;;;;;5064264;28;20830;-71
2021/07/23 10:38:06;;;;;;;3.17;2.70;;;23.50;99.90;;;;;;5065948;28;20252;-71
2021/07/23 10:40:38;;;;;;;3.50;2.70;;;23.40;99.90;;;;;;5067053;28;20660;-71
2021/07/23 10:43:34;;;;;;;2.90;2.40;;;23.80;99.90;;;;;;5068516;28;20206;-71
2021/07/23 10:46:02;;;;;;;2.65;2.17;;;24.50;99.90;;;;;;5068611;28;20213;-71
2021/07/23 10:48:46;;;;;;;4.07;2.17;;;24.30;99.90;;;;;;5071482;28;20294;-71
2021/07/23 10:51:47;;;;;;;2.33;2.13;;;24.40;99.90;;;;;;5061545;28;20666;-71
2021/07/23 10:54:14;;;;;;;5.03;2.33;;;24.30;99.90;;;;;;5070291;28;20270;-71
2021/07/23 10:57:12;;;;;;;2.20;2.00;;;24.20;99.90;;;;;;5068635;28;20281;-71
2021/07/23 10:59:53;;;;;;;2.20;2.00;;;25.10;99.90;;;;;;5062926;28;20678;-73
2021/07/23 11:02:46;;;;;;;6.20;2.03;;;25.50;99.90;;;;;;5069647;28;20627;-73
2021/07/23 11:05:15;;;;;;;3.38;2.47;;;24.90;99.90;;;;;;5059539;28;20210;-73
2021/07/23 11:07:43;;;;;;;3.78;2.30;;;24.70;99.90;;;;;;5059543;28;20206;-73
2021/07/23 11:10:13;;;;;;;2.85;2.25;;;25.00;99.90;;;;;;5053450;28;20279;-73
2021/07/23 11:12:41;;;;;;;4.68;2.65;;;24.50;99.90;;;;;;5063902;28;20202;-72
2021/07/23 11:15:12;;;;;;;3.10;2.25;;;24.40;99.90;;;;;;5064734;28;20225;-73
2021/07/23 11:17:57;;;;;;;3.78;2.58;;;23.70;99.90;;;;;;5065343;28;20308;-71
2021/07/23 11:20:33;;;;;;;4.15;2.72;;;24.80;99.90;;;;;;5064043;28;20202;-71
2021/07/23 11:23:00;;;;;;;3.15;2.47;;;25.20;99.90;;;;;;5073716;28;20214;-74
2021/07/23 11:25:30;;;;;;;3.90;2.65;;;25.50;99.90;;;;;;5074249;28;20203;-73
2021/07/23 11:28:01;;;;;;;3.17;2.17;;;25.40;99.90;;;;;;5062744;28;20246;-70
2021/07/23 11:30:33;;;;;;;2.67;2.47;;;24.80;99.90;;;;;;5065377;28;20240;-70
2021/07/23 11:33:01;;;;;;;4.03;2.72;;;25.00;99.90;;;;;;5066389;28;20202;-70
2021/07/23 11:35:29;;;;;;;5.28;2.97;;;24.60;99.90;;;;;;5056930;28;20272;-73
2021/07/23 11:37:57;;;;;;;3.35;2.88;;;24.30;99.90;;;;;;5063945;28;20214;-73
2021/07/23 11:40:26;;;;;;;3.00;2.70;;;24.10;99.90;;;;;;5062541;28;20260;-73
2021/07/23 11:42:55;;;;;;;3.13;2.80;;;24.00;99.90;;;;;;5069793;28;20681;-72
2021/07/23 11:45:23;;;;;;;2.47;2.28;;;24.10;99.90;;;;;;5066228;28;20214;-71
2021/07/23 11:47:53;;;;;;;5.47;3.10;;;25.00;99.90;;;;;;5061198;28;20194;-72
2021/07/23 11:50:24;;;;;;;4.20;2.55;;;24.60;99.90;;;;;;5062045;28;20210;-71
2021/07/23 11:53:00;;;;;;;4.15;2.80;;;24.60;99.90;;;;;;5064205;28;20289;-71
2021/07/23 11:55:38;;;;;;;7.45;3.17;;;24.50;99.90;;;;;;5064890;28;20726;-71
2021/07/23 11:58:05;;;;;;;6.15;3.28;;;24.40;99.90;;;;;;5068326;28;20632;-71
2021/07/23 12:00:32;;;;;;;5.43;2.85;;;24.60;99.90;;;;;;5063593;28;20210;-72
2021/07/23 12:03:15;;;;;;;7.20;3.20;;;24.80;99.90;;;;;;5072063;28;20206;-73
2021/07/23 12:05:42;;;;;;;3.30;2.80;;;25.10;99.90;;;;;;5063385;28;20230;-73
2021/07/23 12:08:09;;;;;;;3.60;3.03;;;25.70;99.90;;;;;;5066794;28;20242;-73
2021/07/23 12:10:37;;;;;;;4.53;3.55;;;25.60;99.90;;;;;;5063595;28;20230;-71
2021/07/23 12:13:05;;;;;;;4.68;3.28;;;25.40;99.90;;;;;;5063530;28;20202;-71
2021/07/23 12:15:40;;;;;;;3.67;3.10;;;25.70;99.90;;;;;;5052853;28;20356;-71
2021/07/23 12:18:09;;;;;;;4.55;2.90;;;25.70;99.90;;;;;;5062633;28;20236;-70
2021/07/23 12:20:37;;;;;;;4.75;3.35;;;25.40;99.90;;;;;;5063630;28;20256;-70
2021/07/23 12:23:05;;;;;;;3.45;3.05;;;25.80;99.90;;;;;;5067442;28;20211;-73
2021/07/23 12:25:39;;;;;;;5.07;3.35;;;26.00;99.90;;;;;;5066314;28;20563;-73
2021/07/23 12:28:10;;;;;;;6.38;3.10;;;25.70;99.90;;;;;;5061831;28;20241;-70
2021/07/23 12:30:38;;;;;;;4.95;2.95;;;26.10;99.90;;;;;;5070617;28;20256;-70
2021/07/23 12:33:17;;;;;;;4.35;3.10;;;26.40;99.90;;;;;;5062793;28;20264;-70
2021/07/23 12:35:44;;;;;;;4.97;3.15;;;26.30;99.90;;;;;;5070868;28;20210;-73
2021/07/23 12:38:12;;;;;;;6.03;2.92;;;26.00;99.90;;;;;;5053641;28;20214;-71
2021/07/23 12:40:47;;;;;;;4.45;3.30;;;25.10;99.90;;;;;;5061048;28;20240;-70
2021/07/23 12:43:15;;;;;;;8.07;3.38;;;25.00;99.90;;;;;;5067073;28;20476;-70
2021/07/23 12:45:42;;;;;;;9.43;3.50;;;25.50;99.90;;;;;;5064480;28;20202;-70
2021/07/23 12:48:13;;;;;;;4.97;3.20;;;25.40;99.90;;;;;;5063959;28;20230;-70
2021/07/23 12:50:42;;;;;;;3.25;2.95;;;24.80;99.90;;;;;;5065579;28;20292;-70
2021/07/23 12:53:11;;;;;;;7.93;4.22;;;24.50;99.90;;;;;;5066418;28;20210;-70